Airfield :







YOU CAN JOIN US ON...

 
LOGIN :

Register | Disclaimer

   EN    FR    IT 

 









Legend :    VFR   Marginal VFR   IFR   Intensive IFR   Very Intensive IFR
Visi :
Ceiling :
>= 8 km
>= 3000ft
5 to 8 km
1000 to 3000 ft
1500m to 5 km
500 to 1000 ft
800 to 1500m
200 to 500 ft
< 800m
< 200 ft
Symbols :   Thunderstorms  Fog  Heavy snow  Heavy precipitations  Wind > 20 kt






- Airport Elevation : 489 ft


KHUL - Houlton International

CURRENT METAR :
  • 301153Z AUTO 02013KT 10SM CLR M04/M09 A2993 RMK AO2 SLP143 T10391094 11017 21039 56001

EXPIRED METARs :
  • 301053Z AUTO 36013KT 10SM CLR M03/M09 A2995 RMK AO2 PRESRR SLP148 T10331094
  • 300953Z AUTO 01015KT 10SM CLR M03/M09 A2992 RMK AO2 SLP138 T10281094

TAF KHUL
Valid from the 30 at 12:00 until the 31 at 12:00 UTC


301120Z 3012/3112 36012KT P6SM SCT120 BKN200
FM302200 33005KT P6SM SKC
KZBW FIR / North America



MET'MAP, your aeronautical weather chart ! - Copyright ORBIFLY December 2007 - Disclaimer

ORBIFLY MET'MAP TEAM :

Programming & Development : Alexandra Zaïnal
Concept & original design : Baudouin d'Aumeries
Assistance for programming : Marc-Olivier Méhu
Technical & hardware support : Manuel Goepfert

Contact : metmap@orbifly.com




SOURCES & CREDITS :

   NOAA